Weather at Federal Border Guard No. 11 Helipad

Public forecast

Using degrees Celsius for public forecast. Weather courtesy of forecast.io.

Closest aviation weather report (METAR) to Federal Border Guard No. 11 Helipad

Closest report is Hatay Airport, 21.5 nm (39.7 km) SW.

2024/05/25 11:50 (retrieved 24 minutes ago)

LTDA 251150Z 21023KT 9999 SCT035 25/17 Q1006 NOSIG

Closest aviation forecast (TAF) to Federal Border Guard No. 11 Helipad

Forecast is more than 6 hours old.

Closest forecast is Aleppo International Airport, 41.8 nm (77.4 km) SE.

2024/05/25 06:00 (retrieved 6 hours ago)

TAF OSAP 250400Z 2506/2606 35012KT 9999 SCT030 BKN100 TEMPO 2510/2513 33018KT 4000 -RA SCT025 BKN080